Time;durP1;ratioP1;P1;durP2;ratioP2;P2;SDS_P1;SDS_P2;PMS_P1;PMS_P2;Temp;Humidity;BMP_temperature;BMP_pressure;BME280_temperature;BME280_humidity;BME280_pressure;Samples;Min_cycle;Max_cycle;Signal;HPM_P1;HPM_P2
2022/01/06 00:01:54;;;;;;;12.38;3.25;;;2.80;99.90;;;;;;4999735;28;20033;-80
2022/01/06 00:04:20;;;;;;;11.43;3.10;;;2.80;99.90;;;;;;4967071;28;20042;-80
2022/01/06 00:06:45;;;;;;;13.98;3.28;;;2.80;99.90;;;;;;4978955;28;20062;-81
2022/01/06 00:09:15;;;;;;;6.13;2.78;;;2.90;99.90;;;;;;4984005;28;20448;-80
2022/01/06 00:11:41;;;;;;;11.60;3.22;;;2.90;99.90;;;;;;4961431;28;20186;-80
2022/01/06 00:15:28;;;;;;;8.23;3.22;;;2.80;99.90;;;;;;4966848;28;20393;-80
2022/01/06 00:25:18;;;;;;;8.90;2.80;;;2.90;99.90;;;;;;5000907;28;20046;-81
2022/01/06 00:27:44;;;;;;;11.65;2.78;;;2.90;99.90;;;;;;4989017;28;20022;-81
2022/01/06 00:30:10;;;;;;;15.70;3.00;;;2.90;99.90;;;;;;4968787;28;20081;-81
2022/01/06 00:32:36;;;;;;;17.15;3.40;;;2.90;99.90;;;;;;4984204;28;20030;-81
2022/01/06 00:35:02;;;;;;;11.10;3.47;;;2.90;99.90;;;;;;4978664;28;20102;-81
2022/01/06 00:37:28;;;;;;;11.13;2.78;;;2.90;99.90;;;;;;4992374;28;20038;-80
2022/01/06 00:39:53;;;;;;;10.98;3.40;;;2.90;99.90;;;;;;4968146;28;20026;-80
2022/01/06 00:42:19;;;;;;;12.95;2.83;;;2.90;99.90;;;;;;4982305;28;20497;-81
2022/01/06 00:44:48;;;;;;;10.80;3.28;;;2.90;99.90;;;;;;4977780;28;20081;-80
2022/01/06 00:47:20;;;;;;;7.88;3.08;;;2.90;99.90;;;;;;4960084;28;20026;-81
2022/01/06 00:49:46;;;;;;;8.48;2.85;;;2.90;99.90;;;;;;4970375;28;20106;-80
2022/01/06 00:52:12;;;;;;;7.88;2.92;;;2.90;99.90;;;;;;4984623;28;20105;-80
2022/01/06 00:54:38;;;;;;;13.35;3.13;;;2.90;99.90;;;;;;4999384;28;20040;-81
2022/01/06 00:57:07;;;;;;;13.32;3.15;;;2.90;99.90;;;;;;4995970;28;20038;-81
2022/01/06 00:59:37;;;;;;;10.65;3.25;;;2.90;99.90;;;;;;4980644;28;20037;-81
2022/01/06 01:02:02;;;;;;;13.93;2.88;;;2.90;99.90;;;;;;4974456;28;20149;-80
2022/01/06 01:04:31;;;;;;;10.13;2.92;;;2.90;99.90;;;;;;4984360;28;20030;-80
2022/01/06 01:07:03;;;;;;;9.20;3.35;;;2.90;99.90;;;;;;4981737;28;20034;-81
2022/01/06 01:09:35;;;;;;;13.13;3.08;;;2.90;99.90;;;;;;4980408;28;20034;-80
2022/01/06 01:12:03;;;;;;;12.15;3.30;;;2.90;99.90;;;;;;4948361;28;20532;-80
2022/01/06 01:14:32;;;;;;;13.48;3.22;;;2.90;99.90;;;;;;4962160;28;20506;-80
2022/01/06 01:17:14;;;;;;;9.43;3.23;;;2.90;99.90;;;;;;4967065;28;20043;-80
2022/01/06 01:19:42;;;;;;;5.65;2.60;;;2.80;99.90;;;;;;4959670;28;20038;-80
2022/01/06 01:22:08;;;;;;;5.55;2.60;;;2.80;99.90;;;;;;4963641;28;20026;-80
2022/01/06 01:24:34;;;;;;;11.68;3.10;;;2.80;99.90;;;;;;4997527;28;20056;-81
2022/01/06 01:27:09;;;;;;;7.75;3.15;;;2.80;99.90;;;;;;4985446;28;20038;-80
2022/01/06 01:29:44;;;;;;;9.43;3.22;;;2.80;99.90;;;;;;4994899;28;20030;-80
2022/01/06 01:32:10;;;;;;;13.95;2.97;;;2.80;99.90;;;;;;4950307;28;20061;-80
2022/01/06 01:34:38;;;;;;;12.35;3.20;;;2.80;99.90;;;;;;4965916;28;20031;-80
2022/01/06 01:37:04;;;;;;;7.35;3.08;;;2.90;99.90;;;;;;4946174;28;20043;-80
2022/01/06 01:39:29;;;;;;;12.10;3.05;;;2.80;99.90;;;;;;4960648;28;20602;-80
2022/01/06 01:41:55;;;;;;;13.73;3.20;;;2.80;99.90;;;;;;4949787;28;20031;-81
2022/01/06 01:44:26;;;;;;;11.60;2.58;;;2.80;99.90;;;;;;4985109;28;20065;-80
2022/01/06 01:47:00;;;;;;;9.88;3.67;;;2.90;99.90;;;;;;4969970;28;20054;-81
2022/01/06 01:49:46;;;;;;;5.95;2.50;;;2.90;99.90;;;;;;4976859;28;20040;-81
2022/01/06 01:52:15;;;;;;;10.80;2.20;;;2.90;99.90;;;;;;4984462;28;20026;-81
2022/01/06 01:54:41;;;;;;;7.95;3.13;;;2.90;99.90;;;;;;4965520;28;20042;-80
2022/01/06 01:57:07;;;;;;;12.63;3.22;;;2.90;99.90;;;;;;4997128;28;20038;-80
2022/01/06 01:59:38;;;;;;;8.15;2.95;;;2.90;99.90;;;;;;4973806;28;20031;-80
2022/01/06 02:02:08;;;;;;;7.80;2.40;;;2.90;99.90;;;;;;4960446;28;20034;-80
2022/01/06 02:04:37;;;;;;;7.72;3.55;;;2.90;99.90;;;;;;4962300;28;20375;-81
2022/01/06 02:07:09;;;;;;;6.80;2.95;;;2.90;99.90;;;;;;4957226;28;20038;-80
2022/01/06 02:09:37;;;;;;;8.68;3.28;;;2.90;99.90;;;;;;4988108;28;20026;-80
2022/01/06 02:12:03;;;;;;;11.30;2.83;;;3.00;99.90;;;;;;4974609;28;20056;-80
2022/01/06 02:14:28;;;;;;;14.13;2.60;;;2.90;99.90;;;;;;4957571;28;20748;-80
2022/01/06 02:16:55;;;;;;;10.02;2.67;;;2.90;99.90;;;;;;4964528;28;20034;-80
2022/01/06 02:19:20;;;;;;;7.28;2.72;;;2.90;99.90;;;;;;4965400;28;20027;-80
2022/01/06 02:21:46;;;;;;;10.07;3.17;;;3.00;99.90;;;;;;4975406;28;20022;-81
2022/01/06 02:24:12;;;;;;;15.60;4.18;;;2.90;99.90;;;;;;4948231;28;20034;-80
2022/01/06 02:26:37;;;;;;;11.80;3.50;;;2.90;99.90;;;;;;4970490;28;20047;-80
2022/01/06 02:29:03;;;;;;;10.30;2.97;;;2.90;99.90;;;;;;4972550;28;20501;-80
2022/01/06 02:31:40;;;;;;;10.10;3.03;;;2.90;99.90;;;;;;4957677;28;20030;-80
2022/01/06 02:34:06;;;;;;;12.05;2.90;;;2.80;99.90;;;;;;4996745;28;20038;-80
2022/01/06 02:36:37;;;;;;;5.88;2.53;;;2.70;99.90;;;;;;4980533;28;20112;-80
2022/01/06 02:39:08;;;;;;;8.10;2.50;;;2.70;99.90;;;;;;4981988;28;20026;-80
2022/01/06 02:41:34;;;;;;;13.25;2.83;;;2.60;99.90;;;;;;4955087;28;20043;-80
2022/01/06 02:44:01;;;;;;;9.75;3.40;;;2.50;99.90;;;;;;4979273;28;20027;-80
2022/01/06 02:46:26;;;;;;;7.30;2.75;;;2.50;99.90;;;;;;4980319;28;20121;-80
2022/01/06 02:48:55;;;;;;;9.70;3.60;;;2.50;99.90;;;;;;4957454;28;20097;-80
2022/01/06 02:51:21;;;;;;;6.60;2.55;;;2.50;99.90;;;;;;4970309;28;20046;-80
2022/01/06 02:53:56;;;;;;;12.30;2.30;;;2.60;99.90;;;;;;4975985;28;20031;-80
2022/01/06 02:56:22;;;;;;;6.35;3.00;;;2.60;99.90;;;;;;4962304;28;20401;-80
2022/01/06 02:58:48;;;;;;;6.80;2.72;;;2.60;99.90;;;;;;4970423;28;20038;-80
2022/01/06 03:01:14;;;;;;;5.80;2.42;;;2.60;99.90;;;;;;4953240;28;20026;-80
2022/01/06 03:03:40;;;;;;;8.18;2.80;;;2.60;99.90;;;;;;4997994;28;20041;-80
2022/01/06 03:06:06;;;;;;;5.28;2.33;;;2.70;99.90;;;;;;4978117;28;20027;-80
2022/01/06 03:08:33;;;;;;;13.02;3.03;;;2.60;99.90;;;;;;4947490;28;20027;-81
2022/01/06 03:11:02;;;;;;;5.18;2.47;;;2.70;99.90;;;;;;4953669;28;20057;-80
2022/01/06 03:13:28;;;;;;;9.63;2.75;;;2.60;99.90;;;;;;4962601;28;20065;-81
2022/01/06 03:16:08;;;;;;;7.07;3.10;;;2.60;99.90;;;;;;4961480;28;20098;-80
2022/01/06 03:18:37;;;;;;;7.50;3.45;;;2.60;99.90;;;;;;4964556;28;20058;-80
2022/01/06 03:21:02;;;;;;;14.68;2.70;;;2.60;99.90;;;;;;4967547;28;20425;-80
2022/01/06 03:23:29;;;;;;;7.80;3.03;;;2.60;99.90;;;;;;4963735;28;20034;-80
2022/01/06 03:25:55;;;;;;;10.23;2.63;;;2.60;99.90;;;;;;4950800;28;20038;-80
2022/01/06 03:28:21;;;;;;;6.07;2.85;;;2.50;99.90;;;;;;4962952;28;20046;-80
2022/01/06 03:30:46;;;;;;;11.63;2.95;;;2.50;99.90;;;;;;4980739;28;20066;-81
2022/01/06 03:33:12;;;;;;;8.48;2.80;;;2.50;99.90;;;;;;4985357;28;20023;-79
2022/01/06 03:35:37;;;;;;;12.82;3.35;;;2.40;99.90;;;;;;4984799;28;20039;-81
2022/01/06 03:38:15;;;;;;;16.92;3.65;;;2.40;99.90;;;;;;4969299;28;20060;-80
2022/01/06 03:40:41;;;;;;;8.02;2.92;;;2.40;99.90;;;;;;4980807;28;20034;-80
2022/01/06 03:43:08;;;;;;;15.52;3.08;;;2.30;99.90;;;;;;4985119;28;20114;-80
2022/01/06 03:45:34;;;;;;;13.25;3.15;;;2.30;99.90;;;;;;4951482;28;20050;-80
2022/01/06 03:48:00;;;;;;;14.63;2.83;;;2.20;99.90;;;;;;5000931;28;20393;-80
2022/01/06 03:50:26;;;;;;;13.32;3.10;;;2.20;99.90;;;;;;4983723;28;20030;-80
2022/01/06 03:52:52;;;;;;;8.65;2.97;;;2.10;99.90;;;;;;4960188;28;20402;-80
2022/01/06 03:55:25;;;;;;;9.20;3.33;;;2.10;99.90;;;;;;4950495;28;20074;-80
2022/01/06 03:57:56;;;;;;;6.53;2.80;;;2.00;99.90;;;;;;4985754;28;20046;-80
2022/01/06 04:00:22;;;;;;;8.20;2.85;;;2.00;99.90;;;;;;4958529;28;20026;-80
2022/01/06 04:02:48;;;;;;;14.75;2.65;;;2.00;99.90;;;;;;4991815;28;20034;-80
2022/01/06 04:05:17;;;;;;;10.60;3.67;;;1.90;99.90;;;;;;4964302;28;20417;-81
2022/01/06 04:07:48;;;;;;;4.20;2.40;;;1.90;99.90;;;;;;4973479;28;20078;-80
2022/01/06 04:10:14;;;;;;;9.13;3.03;;;1.80;99.90;;;;;;4956767;28;20485;-80
2022/01/06 04:12:40;;;;;;;14.73;3.05;;;1.80;99.90;;;;;;4984845;28;20099;-80
2022/01/06 04:15:10;;;;;;;9.35;3.45;;;1.70;99.90;;;;;;4995247;28;20031;-80
2022/01/06 04:17:43;;;;;;;6.35;3.15;;;1.70;99.90;;;;;;4982707;28;20073;-80
2022/01/06 04:20:10;;;;;;;9.20;2.72;;;1.70;99.90;;;;;;4981674;28;20038;-81
2022/01/06 04:22:39;;;;;;;7.72;2.90;;;1.70;99.90;;;;;;5000913;28;20474;-80
2022/01/06 04:25:06;;;;;;;5.30;3.05;;;1.70;99.90;;;;;;4965753;28;20560;-81
2022/01/06 04:27:32;;;;;;;13.93;2.90;;;1.60;99.90;;;;;;4976822;28;20053;-81
2022/01/06 04:29:58;;;;;;;16.67;3.30;;;1.60;99.90;;;;;;4988606;28;20074;-80
2022/01/06 04:32:27;;;;;;;10.50;2.97;;;1.60;99.90;;;;;;4968930;28;20026;-81
2022/01/06 04:34:56;;;;;;;6.82;2.88;;;1.60;99.90;;;;;;4965378;28;20042;-81
2022/01/06 04:37:24;;;;;;;12.77;3.03;;;1.60;99.90;;;;;;4998021;28;20045;-80
2022/01/06 04:39:52;;;;;;;8.45;3.30;;;1.60;99.90;;;;;;4967117;28;20022;-81
2022/01/06 04:42:18;;;;;;;11.57;3.33;;;1.70;99.90;;;;;;4964670;28;20482;-80
2022/01/06 04:44:56;;;;;;;10.30;3.70;;;1.70;99.90;;;;;;4963712;28;20077;-81
2022/01/06 04:47:22;;;;;;;15.90;3.70;;;1.70;99.90;;;;;;4964706;28;20041;-80
2022/01/06 04:49:47;;;;;;;7.32;3.40;;;1.70;99.90;;;;;;4998945;28;20034;-80
2022/01/06 04:52:13;;;;;;;7.80;3.42;;;1.70;99.90;;;;;;4995966;28;20034;-80
2022/01/06 04:54:48;;;;;;;8.57;2.78;;;1.70;99.90;;;;;;4967120;28;20054;-81
2022/01/06 04:57:17;;;;;;;10.15;3.83;;;1.80;99.90;;;;;;4966957;28;20038;-82
2022/01/06 04:59:46;;;;;;;11.10;4.15;;;1.80;99.90;;;;;;4950206;28;20039;-82
2022/01/06 05:02:18;;;;;;;8.75;3.55;;;1.80;99.90;;;;;;4977780;28;20037;-81
2022/01/06 05:04:44;;;;;;;10.85;3.13;;;1.80;99.90;;;;;;4963999;28;20145;-82
2022/01/06 05:07:10;;;;;;;12.68;4.13;;;1.90;99.90;;;;;;4976471;28;20030;-82
2022/01/06 05:09:36;;;;;;;12.63;3.47;;;1.90;99.90;;;;;;4960086;28;20399;-82
2022/01/06 05:12:17;;;;;;;7.25;3.67;;;2.00;99.90;;;;;;4980132;28;20456;-82
2022/01/06 05:14:42;;;;;;;11.80;3.50;;;2.00;99.90;;;;;;4998674;28;20034;-82
2022/01/06 05:17:09;;;;;;;10.15;3.63;;;2.00;99.90;;;;;;4965723;28;20090;-81
2022/01/06 05:19:38;;;;;;;10.82;3.80;;;2.10;99.90;;;;;;4968298;28;20121;-82
2022/01/06 05:22:04;;;;;;;8.55;3.15;;;2.10;99.90;;;;;;4965702;28;20030;-81
2022/01/06 05:24:29;;;;;;;12.30;3.30;;;2.10;99.90;;;;;;4966948;28;20029;-81
2022/01/06 05:26:56;;;;;;;19.02;3.75;;;2.10;99.90;;;;;;4998761;28;20080;-82
2022/01/06 05:29:26;;;;;;;12.75;2.85;;;2.10;99.90;;;;;;4966079;28;20026;-82
2022/01/06 05:32:04;;;;;;;8.65;2.53;;;2.10;99.90;;;;;;4953423;28;20069;-81
2022/01/06 05:34:30;;;;;;;11.35;2.65;;;2.10;99.90;;;;;;4984131;28;20034;-82
2022/01/06 05:36:55;;;;;;;9.40;2.53;;;2.10;99.90;;;;;;4967111;28;20039;-82
2022/01/06 05:39:21;;;;;;;4.45;2.03;;;2.00;99.90;;;;;;4947695;28;20026;-82
2022/01/06 05:41:47;;;;;;;8.65;2.17;;;2.00;99.90;;;;;;4947604;28;20106;-81
2022/01/06 05:44:13;;;;;;;3.55;1.77;;;2.00;99.90;;;;;;4971609;28;20041;-82
2022/01/06 05:46:38;;;;;;;9.05;1.70;;;1.90;99.90;;;;;;4963320;28;20034;-82
2022/01/06 05:49:05;;;;;;;5.68;1.55;;;1.90;99.90;;;;;;4974423;28;20034;-81
2022/01/06 05:51:30;;;;;;;4.57;1.20;;;1.90;99.90;;;;;;4972195;28;20105;-81
2022/01/06 05:53:56;;;;;;;4.72;1.45;;;1.80;99.90;;;;;;4984552;28;20449;-81
2022/01/06 05:56:22;;;;;;;4.78;1.33;;;1.80;99.90;;;;;;4973013;28;20035;-82
2022/01/06 05:58:54;;;;;;;3.30;1.35;;;1.80;99.90;;;;;;4989565;28;20079;-82
2022/01/06 06:01:26;;;;;;;2.45;1.45;;;1.80;99.90;;;;;;4994430;28;20039;-81
2022/01/06 06:03:55;;;;;;;6.30;1.10;;;1.80;99.90;;;;;;4985632;28;20038;-81
2022/01/06 06:06:21;;;;;;;5.38;1.02;;;1.80;99.90;;;;;;4968107;28;20042;-81
2022/01/06 06:08:47;;;;;;;3.75;1.42;;;1.80;99.90;;;;;;4982938;28;20482;-82
2022/01/06 06:11:16;;;;;;;5.93;1.65;;;1.80;99.90;;;;;;4984033;28;20081;-82
2022/01/06 06:13:45;;;;;;;5.25;1.50;;;1.80;99.90;;;;;;4966750;28;20039;-82
2022/01/06 06:16:10;;;;;;;1.95;1.20;;;1.90;99.90;;;;;;4953492;28;20069;-81
2022/01/06 06:18:40;;;;;;;2.38;1.17;;;1.80;99.90;;;;;;4951042;28;20046;-81
2022/01/06 06:21:07;;;;;;;3.60;1.02;;;1.80;99.90;;;;;;4968440;28;20125;-82
2022/01/06 06:23:32;;;;;;;4.95;0.80;;;1.80;99.90;;;;;;4971667;28;20031;-81
2022/01/06 06:25:59;;;;;;;3.97;0.88;;;1.70;99.90;;;;;;4984754;28;20719;-82
2022/01/06 06:28:24;;;;;;;1.02;0.85;;;1.70;99.90;;;;;;4983325;28;20434;-81
2022/01/06 06:30:55;;;;;;;2.97;0.90;;;1.60;99.90;;;;;;4968057;28;20062;-81
2022/01/06 06:33:24;;;;;;;4.47;0.95;;;1.50;99.90;;;;;;4966353;28;20110;-82
2022/01/06 06:35:50;;;;;;;2.03;0.90;;;1.40;99.90;;;;;;4949290;28;20066;-81
2022/01/06 06:38:16;;;;;;;3.10;1.45;;;1.40;99.90;;;;;;4967358;28;20031;-81
2022/01/06 06:40:47;;;;;;;5.35;1.50;;;1.30;99.90;;;;;;4984650;28;20047;-81
2022/01/06 06:43:13;;;;;;;11.48;2.20;;;1.20;99.90;;;;;;4967646;28;20027;-81
2022/01/06 06:45:48;;;;;;;7.40;2.00;;;1.20;99.90;;;;;;4984848;28;20431;-81
2022/01/06 06:48:14;;;;;;;6.57;2.20;;;1.10;99.90;;;;;;4993499;28;20033;-81
2022/01/06 06:50:39;;;;;;;4.63;2.38;;;1.10;99.90;;;;;;4968298;28;20057;-81
2022/01/06 06:53:07;;;;;;;10.48;4.18;;;1.00;99.90;;;;;;4992639;28;20038;-81
2022/01/06 06:55:33;;;;;;;11.18;3.78;;;1.00;99.90;;;;;;4985529;28;20026;-82
2022/01/06 06:58:05;;;;;;;11.23;5.28;;;1.00;99.90;;;;;;4971881;28;20560;-82
2022/01/06 07:00:37;;;;;;;12.00;3.70;;;0.90;99.90;;;;;;4970640;28;20039;-82
2022/01/06 07:03:03;;;;;;;6.90;3.03;;;0.80;99.90;;;;;;4984429;28;20055;-82
2022/01/06 07:05:29;;;;;;;6.72;3.30;;;0.80;99.90;;;;;;4992305;28;20389;-81
2022/01/06 07:07:55;;;;;;;11.02;4.78;;;0.70;99.90;;;;;;4979351;28;20135;-81
2022/01/06 07:10:21;;;;;;;12.18;4.90;;;0.70;99.90;;;;;;4994892;28;20041;-81
2022/01/06 07:12:50;;;;;;;15.00;3.97;;;0.70;99.90;;;;;;4973621;28;20038;-82
2022/01/06 07:15:17;;;;;;;7.00;3.17;;;0.70;99.90;;;;;;4969923;28;20058;-81
2022/01/06 07:17:43;;;;;;;8.98;3.42;;;0.70;99.90;;;;;;4989083;28;20030;-81
2022/01/06 07:20:10;;;;;;;11.40;4.13;;;0.70;99.90;;;;;;4980488;28;20038;-81
2022/01/06 07:22:47;;;;;;;15.85;3.90;;;0.70;99.90;;;;;;4988349;28;20080;-82
2022/01/06 07:25:18;;;;;;;13.10;3.97;;;0.80;99.90;;;;;;4956311;28;20027;-82
2022/01/06 07:27:44;;;;;;;11.35;4.10;;;0.80;99.90;;;;;;4972033;28;20045;-81
2022/01/06 07:30:16;;;;;;;12.88;4.47;;;0.80;99.90;;;;;;4963534;28;20039;-82
2022/01/06 07:32:47;;;;;;;14.10;5.13;;;0.80;99.90;;;;;;4969658;28;20062;-82
2022/01/06 07:35:13;;;;;;;14.52;4.10;;;0.90;99.90;;;;;;4969334;28;20045;-81
2022/01/06 07:37:39;;;;;;;12.40;3.80;;;0.90;99.90;;;;;;4991830;28;20031;-82
2022/01/06 07:40:06;;;;;;;8.77;3.78;;;0.90;99.90;;;;;;4997545;28;20018;-82
2022/01/06 07:42:32;;;;;;;12.35;3.42;;;1.00;99.90;;;;;;4977791;28;20023;-82
2022/01/06 07:45:03;;;;;;;9.77;3.80;;;1.10;99.90;;;;;;5000058;28;20078;-81
2022/01/06 07:47:31;;;;;;;9.90;3.55;;;1.10;99.90;;;;;;4960317;28;20545;-81
2022/01/06 07:49:57;;;;;;;11.75;4.22;;;1.20;99.90;;;;;;4977869;28;20031;-81
2022/01/06 07:52:22;;;;;;;9.40;4.30;;;1.20;99.90;;;;;;4968893;28;20560;-81
2022/01/06 07:54:48;;;;;;;16.10;4.13;;;1.30;99.90;;;;;;4983514;28;20085;-82
2022/01/06 07:57:14;;;;;;;7.35;3.78;;;1.40;99.90;;;;;;5001825;28;20030;-81
2022/01/06 07:59:41;;;;;;;9.13;3.58;;;1.40;99.90;;;;;;4972171;28;20055;-81
2022/01/06 08:02:08;;;;;;;11.27;3.38;;;1.40;99.90;;;;;;4988740;28;20022;-82
2022/01/06 08:04:34;;;;;;;14.73;4.10;;;1.50;99.90;;;;;;4973492;28;20099;-81
2022/01/06 08:07:01;;;;;;;12.85;3.55;;;1.50;99.90;;;;;;4983223;28;20096;-81
2022/01/06 08:09:27;;;;;;;7.70;3.65;;;1.50;99.90;;;;;;4971900;28;20050;-81
2022/01/06 08:11:53;;;;;;;10.93;3.92;;;1.60;99.90;;;;;;4949838;28;20042;-81
2022/01/06 08:14:23;;;;;;;15.48;3.85;;;1.50;99.90;;;;;;4965607;28;20505;-81
2022/01/06 08:16:48;;;;;;;12.65;3.72;;;1.60;99.90;;;;;;4977202;28;20038;-81
2022/01/06 08:19:15;;;;;;;6.68;3.22;;;1.60;99.90;;;;;;4985278;28;20034;-81
2022/01/06 08:21:52;;;;;;;11.68;3.45;;;1.60;99.90;;;;;;4985062;28;20105;-82
2022/01/06 08:24:30;;;;;;;8.10;2.90;;;1.70;99.90;;;;;;4962092;28;20031;-81
2022/01/06 08:26:59;;;;;;;5.05;2.63;;;1.80;99.90;;;;;;4965926;28;20035;-81
2022/01/06 08:29:24;;;;;;;9.32;3.25;;;1.80;99.90;;;;;;4970232;28;20030;-81
2022/01/06 08:31:53;;;;;;;10.88;3.40;;;1.80;99.90;;;;;;4985605;28;20400;-81
2022/01/06 08:34:25;;;;;;;9.40;3.13;;;1.90;99.90;;;;;;4962428;28;20462;-81
2022/01/06 08:36:52;;;;;;;8.80;3.13;;;1.90;99.90;;;;;;4950561;28;20053;-81
2022/01/06 08:39:18;;;;;;;9.40;2.78;;;2.00;99.90;;;;;;4970134;28;20026;-82
2022/01/06 08:41:46;;;;;;;9.77;3.22;;;2.00;99.90;;;;;;4985758;28;20033;-82
2022/01/06 08:44:12;;;;;;;4.20;2.65;;;2.10;99.90;;;;;;4965780;28;20035;-81
2022/01/06 08:46:38;;;;;;;8.60;3.20;;;2.10;99.90;;;;;;4967840;28;20511;-81
2022/01/06 08:49:11;;;;;;;9.38;2.70;;;2.20;99.90;;;;;;4982906;28;20042;-82
2022/01/06 08:51:42;;;;;;;11.77;3.25;;;2.20;99.90;;;;;;5002513;28;20088;-81
2022/01/06 08:54:11;;;;;;;9.38;3.90;;;2.20;99.90;;;;;;4986165;28;20042;-81
2022/01/06 08:56:44;;;;;;;14.77;4.55;;;2.10;99.90;;;;;;4980873;28;20462;-81
2022/01/06 08:59:18;;;;;;;8.38;3.83;;;2.00;99.90;;;;;;4967842;28;20046;-81
2022/01/06 09:01:46;;;;;;;10.40;3.75;;;2.00;99.90;;;;;;4971276;28;20030;-82
2022/01/06 09:04:20;;;;;;;12.98;4.20;;;2.00;99.90;;;;;;4985711;28;20027;-81
2022/01/06 09:06:53;;;;;;;17.30;4.30;;;2.00;99.90;;;;;;4985551;28;20268;-81
2022/01/06 09:09:23;;;;;;;15.07;4.47;;;2.10;99.90;;;;;;4993633;28;20026;-81
2022/01/06 09:11:52;;;;;;;9.10;3.80;;;2.20;99.90;;;;;;4964555;28;20066;-81
2022/01/06 09:14:18;;;;;;;9.77;4.57;;;2.20;99.90;;;;;;4953484;28;20050;-81
2022/01/06 09:16:47;;;;;;;13.35;4.35;;;2.30;99.90;;;;;;4967588;28;20030;-82
2022/01/06 09:19:17;;;;;;;13.52;4.90;;;2.20;99.90;;;;;;4962944;28;20390;-82
2022/01/06 09:21:43;;;;;;;13.15;3.80;;;2.20;99.90;;;;;;4979608;28;20037;-81
2022/01/06 09:24:09;;;;;;;7.80;3.58;;;2.20;99.90;;;;;;4947720;28;20047;-82
2022/01/06 09:26:38;;;;;;;9.77;3.63;;;2.20;99.90;;;;;;4994842;28;20117;-82
2022/01/06 09:29:08;;;;;;;8.60;3.33;;;2.20;99.90;;;;;;4972165;28;20438;-82
2022/01/06 09:31:36;;;;;;;10.70;3.72;;;2.10;99.90;;;;;;4997117;28;20060;-81
2022/01/06 09:34:05;;;;;;;6.70;3.53;;;2.10;99.90;;;;;;4992164;28;20547;-81
2022/01/06 09:36:34;;;;;;;12.85;3.40;;;2.10;99.90;;;;;;4983429;28;20127;-82
2022/01/06 09:39:03;;;;;;;13.60;3.67;;;2.10;99.90;;;;;;4983806;28;20132;-81
2022/01/06 09:41:30;;;;;;;8.67;2.60;;;2.10;99.90;;;;;;4983003;28;20014;-82
2022/01/06 09:43:57;;;;;;;11.40;2.88;;;2.10;99.90;;;;;;4966090;28;20038;-81
2022/01/06 09:46:30;;;;;;;20.30;3.95;;;2.10;99.90;;;;;;4984041;28;20177;-81
2022/01/06 09:49:00;;;;;;;7.68;3.25;;;2.10;99.90;;;;;;4986099;28;20035;-82
2022/01/06 09:51:28;;;;;;;8.98;3.22;;;2.20;99.90;;;;;;4999684;28;20090;-81
2022/01/06 09:53:56;;;;;;;11.13;3.10;;;2.20;99.90;;;;;;4994773;28;20034;-82
2022/01/06 09:56:29;;;;;;;5.25;2.83;;;2.30;99.90;;;;;;4964328;28;20030;-80
2022/01/06 09:59:02;;;;;;;8.32;3.38;;;2.30;99.90;;;;;;5000641;28;20110;-81
2022/01/06 10:01:29;;;;;;;6.93;2.78;;;2.40;99.90;;;;;;4970063;28;20042;-82
2022/01/06 10:03:55;;;;;;;11.88;3.28;;;2.50;99.90;;;;;;4985765;28;20081;-81
2022/01/06 10:06:27;;;;;;;11.70;2.80;;;2.60;99.90;;;;;;4966109;28;20031;-82
2022/01/06 10:09:05;;;;;;;12.82;2.70;;;2.60;99.90;;;;;;4989447;28;20033;-82
2022/01/06 10:11:36;;;;;;;10.40;2.95;;;2.70;99.90;;;;;;4969908;28;20030;-82
2022/01/06 10:14:30;;;;;;;5.72;2.70;;;2.80;99.90;;;;;;4979307;28;20056;-81
2022/01/06 10:16:59;;;;;;;11.25;2.53;;;2.80;99.90;;;;;;4986403;28;20106;-82
2022/01/06 10:19:28;;;;;;;10.98;2.13;;;2.90;99.90;;;;;;5005425;23;20026;-87
2022/01/06 10:21:57;;;;;;;12.23;2.80;;;3.10;99.90;;;;;;4991157;28;20465;-87
2022/01/06 10:24:26;;;;;;;6.68;2.88;;;3.20;99.90;;;;;;5008316;28;20050;-87
2022/01/06 10:27:07;;;;;;;15.05;2.80;;;3.20;99.90;;;;;;4992847;28;20045;-87
2022/01/06 10:29:44;;;;;;;6.68;1.80;;;3.30;99.90;;;;;;5008081;28;20435;-87
2022/01/06 10:32:18;;;;;;;6.07;2.30;;;3.40;99.90;;;;;;4992606;28;20521;-86
2022/01/06 10:34:55;;;;;;;15.93;2.47;;;3.50;99.90;;;;;;5010276;28;20120;-86
2022/01/06 10:37:39;;;;;;;10.90;2.00;;;3.50;99.90;;;;;;4993278;28;20042;-86
2022/01/06 10:40:10;;;;;;;8.20;2.13;;;3.60;99.90;;;;;;5009889;28;20363;-86
2022/01/06 10:42:39;;;;;;;8.95;2.97;;;3.70;99.90;;;;;;5009700;28;20487;-87
2022/01/06 10:45:14;;;;;;;16.00;2.53;;;3.70;99.90;;;;;;5009784;28;20022;-87
2022/01/06 10:47:51;;;;;;;13.80;2.25;;;3.70;99.90;;;;;;5009616;28;20596;-86
2022/01/06 10:50:38;;;;;;;6.20;1.85;;;3.70;99.90;;;;;;5009606;28;20042;-87
2022/01/06 10:53:08;;;;;;;6.50;1.80;;;3.70;99.90;;;;;;4977772;28;20482;-86
2022/01/06 10:55:43;;;;;;;19.92;2.17;;;3.70;99.90;;;;;;4993245;28;20037;-86
2022/01/06 10:58:25;;;;;;;6.30;1.65;;;3.70;99.90;;;;;;5009414;28;20064;-87
2022/01/06 11:01:07;;;;;;;14.10;2.58;;;3.80;99.90;;;;;;5009213;28;20040;-87
2022/01/06 11:03:36;;;;;;;12.45;1.90;;;3.80;99.90;;;;;;5009536;28;20026;-86
2022/01/06 11:06:04;;;;;;;11.18;1.42;;;4.00;99.90;;;;;;5009443;28;20038;-86
2022/01/06 11:08:39;;;;;;;6.07;2.15;;;4.10;99.90;;;;;;4993042;28;20034;-87
2022/01/06 11:11:26;;;;;;;7.28;1.83;;;4.30;99.90;;;;;;5009200;28;20026;-86
2022/01/06 11:13:54;;;;;;;6.40;1.90;;;4.50;99.90;;;;;;4980454;28;20032;-87
2022/01/06 11:16:23;;;;;;;6.18;1.60;;;4.80;99.90;;;;;;4977430;28;20343;-87
2022/01/06 11:18:54;;;;;;;16.25;1.98;;;5.00;99.90;;;;;;4993256;28;20026;-87
2022/01/06 11:21:37;;;;;;;9.77;1.65;;;5.20;99.90;;;;;;5008930;28;20458;-87
2022/01/06 11:24:24;;;;;;;13.90;1.88;;;5.30;99.90;;;;;;4992738;28;20048;-87
2022/01/06 11:27:02;;;;;;;9.20;1.90;;;5.30;99.90;;;;;;5009413;28;20496;-87
2022/01/06 11:29:40;;;;;;;11.43;1.67;;;5.30;99.90;;;;;;5009058;28;20041;-87
2022/01/06 11:32:19;;;;;;;7.10;1.50;;;5.40;99.90;;;;;;4993358;28;20133;-87
2022/01/06 11:35:11;;;;;;;9.38;1.65;;;5.40;99.90;;;;;;5009043;28;20026;-87
2022/01/06 11:37:45;;;;;;;7.90;1.55;;;5.40;99.90;;;;;;5006813;28;20045;-87
2022/01/06 11:40:13;;;;;;;11.15;1.88;;;5.40;99.90;;;;;;5008854;28;20394;-87
2022/01/06 11:42:39;;;;;;;5.68;1.90;;;5.40;99.90;;;;;;5010765;28;20022;-87
2022/01/06 11:45:06;;;;;;;7.72;1.83;;;5.40;99.90;;;;;;5013759;28;20486;-87
2022/01/06 11:47:39;;;;;;;13.23;2.28;;;5.50;99.90;;;;;;5012463;28;20124;-87
2022/01/06 11:50:25;;;;;;;5.25;1.75;;;5.50;99.90;;;;;;5014032;28;20058;-87
2022/01/06 11:52:58;;;;;;;5.35;1.63;;;5.60;99.90;;;;;;5012272;28;20038;-87
2022/01/06 11:55:33;;;;;;;12.85;1.17;;;5.50;99.90;;;;;;5012183;28;20049;-87
2022/01/06 11:58:18;;;;;;;6.05;1.63;;;5.40;98.10;;;;;;5012027;28;20029;-87
2022/01/06 12:01:12;;;;;;;5.50;1.38;;;5.30;99.10;;;;;;5012210;28;20171;-87
2022/01/06 12:03:45;;;;;;;5.85;1.00;;;5.20;97.80;;;;;;4997220;28;20026;-87
2022/01/06 12:06:36;;;;;;;8.57;1.70;;;5.20;97.90;;;;;;5012092;28;20029;-87
2022/01/06 12:09:17;;;;;;;8.52;1.08;;;5.10;97.30;;;;;;4997092;28;20068;-86
2022/01/06 12:11:57;;;;;;;11.68;1.60;;;5.10;98.50;;;;;;5011966;28;20037;-86
2022/01/06 12:14:25;;;;;;;11.65;1.42;;;5.00;99.20;;;;;;5012096;28;20391;-86
2022/01/06 12:17:05;;;;;;;8.07;1.33;;;4.90;98.60;;;;;;5011767;28;20034;-87
2022/01/06 12:19:31;;;;;;;14.13;2.25;;;4.90;97.80;;;;;;4991786;28;20455;-87
2022/01/06 12:21:57;;;;;;;9.10;1.60;;;4.80;97.90;;;;;;4993415;28;20399;-87
2022/01/06 12:24:23;;;;;;;16.05;1.80;;;4.80;98.30;;;;;;4992226;28;20026;-87
2022/01/06 12:26:49;;;;;;;12.77;2.08;;;4.80;99.10;;;;;;5008517;28;20574;-87
2022/01/06 12:29:19;;;;;;;10.40;1.85;;;4.90;99.70;;;;;;4975720;28;20141;-86
2022/01/06 12:31:45;;;;;;;9.23;1.90;;;5.00;99.70;;;;;;4992016;28;20038;-87
2022/01/06 12:34:15;;;;;;;6.10;1.33;;;5.00;98.60;;;;;;5005899;28;20033;-87
2022/01/06 12:36:43;;;;;;;7.25;1.85;;;5.10;98.10;;;;;;4979500;28;20033;-86
2022/01/06 12:39:16;;;;;;;8.35;2.00;;;5.10;95.60;;;;;;5011541;28;20391;-87
2022/01/06 12:41:49;;;;;;;10.90;2.75;;;5.10;96.90;;;;;;4994807;28;20026;-86
2022/01/06 12:44:28;;;;;;;13.68;1.90;;;5.10;96.80;;;;;;4991640;28;20519;-87
2022/01/06 12:47:05;;;;;;;12.77;1.92;;;5.10;94.90;;;;;;4991646;28;20030;-87
2022/01/06 12:49:38;;;;;;;6.03;1.33;;;4.90;95.60;;;;;;4960492;28;20038;-87
2022/01/06 12:52:10;;;;;;;10.60;1.27;;;4.80;95.50;;;;;;4975404;28;20089;-87
2022/01/06 12:54:42;;;;;;;11.90;1.92;;;4.60;96.50;;;;;;4992593;28;20030;-86
2022/01/06 12:57:13;;;;;;;15.75;2.10;;;4.50;96.60;;;;;;4960798;28;20258;-86
2022/01/06 12:59:41;;;;;;;;;;;4.40;98.10;;;;;;4959481;28;20161;-87
2022/01/06 13:02:12;;;;;;;8.18;1.65;;;4.40;98.80;;;;;;4975526;28;20299;-86
2022/01/06 13:04:45;;;;;;;5.10;1.58;;;4.30;98.90;;;;;;4991271;28;20025;-86
2022/01/06 13:07:12;;;;;;;6.70;1.33;;;4.20;98.80;;;;;;4991382;28;20030;-86
2022/01/06 13:09:55;;;;;;;21.38;1.85;;;4.20;99.90;;;;;;4975417;28;20495;-86
2022/01/06 13:12:26;;;;;;;6.60;1.38;;;4.20;99.90;;;;;;4977315;28;20053;-87
2022/01/06 13:14:56;;;;;;;11.18;1.70;;;4.20;99.90;;;;;;4974772;28;20104;-86